Tiempo atmosférico en la estación meteorológica de Buitrago del Lozoya, Madrid (1026 m.)



Fecha
DESCASC
Temp. máxima en grados centígrados (hora)
DESCASC
Temp. mínima en grados centígrados (hora)
DESCASC
Temp. media en grados centígrados
DESCASC
Racha de viento máxima en m/sg (hora)
DESCASC
Velocidad máxima media en intervalos de 10 minutos(hora)
DESCASC
Precipitaciones diarias en mm
DESCASC
Precipitaciones de 00:00 a 06:00 en mm
DESCASC
Precipitaciones de 06:00 a 12:00 en mm
DESCASC
Precipitaciones de 12:00 a 18:00 en mm
DESCASC
Precipitaciones de 18:00 a 24:00 en mm
DESCASC
20-06-2018 30.5 (17:10) 11.5 (06:50) 21 6.11 (14:30) 2.5 (14:30) 0 0 0 0 0
19-06-2018 28.7 (19:30) 8.9 (07:00) 18.8 6.39 (12:50) 2.78 (15:10) 0 0 0 0 0
18-06-2018 26.8 (16:20) 10.5 (06:20) 18.6 9.17 (12:20) 4.44 (12:30) 0 0 0 0 0
17-06-2018 25.3 (15:20) 6.9 (07:00) 16.1 7.22 (19:10) 3.89 (16:20) 0 0 0 0 0
16-06-2018 25.6 (18:00) 9.8 (06:40) 17.7 8.61 (16:20) 3.89 (15:40) 0 0 0 0 0
15-06-2018 25.9 (17:20) 9.6 (07:00) 17.8 8.33 (18:50) 3.89 (11:00) 0 0 0 0 0
14-06-2018 21.4 (17:50) 7.1 (00:00) 14.2 10.28 (13:20) 5.56 (16:20) 0 0 0 0 0
13-06-2018 19.4 (16:50) 7.3 (06:50) 13.3 8.89 (13:00) 4.72 (15:50) 0 0 0 0 0
12-06-2018 19.1 (16:00) 7 (06:50) 13.1 8.89 (14:20) 3.89 (14:50) 2.2 0 0 2 0.2
11-06-2018 15.8 (17:00) 9.6 (02:00) 12.7 7.5 (18:30) 3.61 (18:30) 0.8 0.1 0 0.7 0
10-06-2018 15.8 (17:00) 6 (00:00) 10.9 7.22 (17:40) 3.06 (17:40) 2.2 0 0 1.4 0.8
09-06-2018 16.2 (15:10) 7.3 (00:00) 11.8 6.39 (12:40) 3.33 (11:20) 0 0 0 0 0
08-06-2018 15.1 (18:20) 10.3 (00:00) 12.7 8.61 (20:30) 4.17 (20:30) 8.2 0 3.2 2.5 2.5
07-06-2018 18.6 (14:30) 7.6 (00:00) 13.1 5.83 (12:30) 2.78 (18:30) 3.9 0 0 0.2 3.7
06-06-2018 16.8 (17:30) 7.6 (00:00) 12.2 8.89 (16:30) 5 (16:50) 2.9 0.7 2.2 0 0
05-06-2018 15.3 (15:50) 7.1 (00:00) 11.2 8.89 (19:50) 3.89 (20:00) 1.2 1 0 0.2 0
04-06-2018 16.9 (18:10) 9.7 (00:00) 13.3 6.39 (23:10) 3.61 (23:10) 0.3 0 0.1 0 0.2
03-06-2018 20.5 (14:40) 8.3 (00:00) 14.4 7.5 (14:50) 3.33 (14:50) 9.4 0.1 0 9.1 0.2
02-06-2018 21.5 (18:00) 9.7 (00:00) 15.6 10.28 (21:10) 4.72 (21:00) 12.8 8.3 1.2 0 3.3
01-06-2018 21 (20:50) 7.1 (00:00) 14 11.67 (21:40) 4.44 (12:30) 1 0 0 0 1
31-05-2018 18.7 (18:50) 8 (06:00) 13.4 8.61 (00:10) 3.89 (01:10) 0 0 0 0 0
30-05-2018 15.4 (18:10) 10.2 (00:00) 12.8 5.56 (20:40) 2.78 (20:40) 8.6 3.1 4.3 0.2 1
29-05-2018 18.8 (15:10) 8.9 (00:00) 13.8 7.5 (18:00) 3.33 (16:10) 0.3 0.1 0 0.1 0.1
28-05-2018 17.3 (15:30) 10.4 (00:00) 13.8 8.61 (17:30) 3.06 (17:30) 9.6 0.1 0 8.7 0.8
27-05-2018 21.6 (17:40) 5 (00:00) 13.3 11.39 (20:50) 4.17 (18:00) 1.3 0 0 0 1.3
26-05-2018 18.7 (17:40) 7.2 (00:00) 13 8.33 (12:20) 3.61 (16:00) 0.2 0 0.1 0.1 0
25-05-2018 17.5 (00:10) 9 (00:00) 13.3 6.94 (01:10) 3.61 (01:30) 15 5.9 5.3 0.3 3.5
24-05-2018 23.5 (18:10) 10.1 (00:00) 16.8 7.22 (18:40) 3.89 (18:40) 2.1 1.2 0.9 0 0
23-05-2018 22.6 (15:10) 8.6 (00:00) 15.6 10 (21:20) 4.44 (21:20) 0 0 0 0 0
22-05-2018 20.2 (12:50) 10.3 (00:00) 15.3 5.28 (15:30) 2.78 (15:10) 0.2 0 0 0.2 0

Gráficas

Temp. máximas Temp. mínimas Temp. medias Precipitaciones Rachas de viento máximas Velocidades máximas media en intervalos de 10 minutos

Datos horarios

Fecha y hora oficial Temperatura (ºC) Velocidad del viento (km/h) Dirección del viento Racha (km/h) Dirección de racha Precipitación (mm) Presión (hPa) Tendencia (hPa) Humedad (%)
2018-06-20 23:00:00 19.2 4 Noroeste 8 Noroeste 0 905.7 1.5 65
2018-06-20 22:00:00 21.2 3 Oeste 8 Noroeste 0 904.7 0.3 59
2018-06-20 21:00:00 25.5 6 Noroeste 11 Noroeste 0 904.4 -0.1 44
2018-06-20 20:00:00 28.3 5 Nordeste 11 Nordeste 0 904.2 -0.5 33
2018-06-20 19:00:00 28 5 Nordeste 17 Nordeste 0 904.4 -0.7 34
2018-06-20 18:00:00 29.6 6 Nordeste 18 Norte 0 904.5 -1 33
2018-06-20 17:00:00 30.3 4 Noroeste 14 Norte 0 904.7 -1.3 31
2018-06-20 16:00:00 29.4 4 Norte 17 Norte 0 905.1 -1.3 33
2018-06-20 15:00:00 28.2 8 Nordeste 22 Norte 0 905.5 -1.2 36
2018-06-20 14:00:00 27.6 7 Norte 19 Nordeste 0 906 -1 37
2018-06-20 13:00:00 26.5 8 Nordeste 15 Nordeste 0 906.4 -0.8 39
2018-06-20 12:00:00 -- 5 Nordeste 10 Nordeste 0 906.7 -0.5 --
2018-06-20 11:00:00 24.3 3 Nordeste 7 Nordeste 0 907 0 43
2018-06-20 10:00:00 21.3 0 Calma 8 Oeste 0 907.2 0 53
2018-06-20 09:00:00 19.4 0 Calma 4 Este 0 907.2 0.1 66
2018-06-20 08:00:00 14.2 0 Calma 6 Noroeste 0 907 0.2 83
2018-06-20 07:00:00 11.5 0 Calma 6 Noroeste 0 907.2 0.4 88
2018-06-20 06:00:00 11.9 0 Calma 3 Oeste 0 907.1 0.5 88
2018-06-20 05:00:00 12.4 0 Calma 4 Noroeste 0 906.8 0.2 85
2018-06-20 04:00:00 13.3 0 Calma 4 Norte 0 906.8 0.3 84
2018-06-20 03:00:00 15 4 Noroeste 10 Noroeste 0 906.6 0.2 81
2018-06-20 02:00:00 15.9 0 Calma 8 Noroeste 0 906.6 0.4 77
2018-06-20 01:00:00 16.5 6 Noroeste 10 Noroeste 0 906.5 1 77
2018-06-20 00:00:00 16.8 3 Noroeste 5 Noroeste 0 906.4 1.1 73
2018-06-19 23:00:00 18.4 3 Noroeste 4 Noroeste 0 906.2 0.7 67
2018-06-19 22:00:00 21.8 0 Calma 10 Oeste 0 905.5 0.5 56
2018-06-19 21:00:00 26.8 0 Calma 9 Norte 0 905.3 -0.6 41
2018-06-19 20:00:00 27.9 0 Calma 8 Norte 0 905.5 -0.7 35
2018-06-19 19:00:00 27.7 5 Norte 16 Noroeste 0 905 -1.4 35
2018-06-19 18:00:00 27.6 5 Nordeste 13 Nordeste 0 905.9 -1 35
2018-06-19 17:00:00 26.8 6 Nordeste 19 Oeste 0 906.2 -0.9 35
2018-06-19 16:00:00 26.5 6 Nordeste 18 Nordeste 0 906.4 -1.1 35
2018-06-19 15:00:00 25.5 9 Nordeste 19 Nordeste 0 906.9 -0.5 36
2018-06-19 14:00:00 24.9 8 Nordeste 17 Nordeste 0 907.1 -0.9 37
2018-06-19 13:00:00 24.5 6 Nordeste 23 Nordeste 0 907.5 -0.8 38
2018-06-19 12:00:00 23.5 8 Nordeste 16 Nordeste 0 907.4 -1 37
2018-06-19 11:00:00 22.8 5 Nordeste 11 Este 0 908 -0.5 41
2018-06-19 10:00:00 20 0 Calma 5 Oeste 0 908.3 -0.1 54
2018-06-19 09:00:00 17 2 Nordeste 5 Nordeste 0 908.4 0.2 68
2018-06-19 08:00:00 12.5 3 Norte 11 Noroeste 0 908.5 0.3 84
2018-06-19 07:00:00 8.9 2 Noroeste 8 Norte 0 908.4 0.5 89
2018-06-19 06:00:00 9.5 3 Noroeste 7 Noroeste 0 908.2 0.3 88
2018-06-19 05:00:00 10.1 0 Calma 6 Noroeste 0 908.2 0.8 87
2018-06-19 04:00:00 11.3 0 Calma 5 Norte 0 907.9 -0.2 86
2018-06-19 03:00:00 12.2 0 Calma 5 Oeste 0 907.9 -0.2 85
2018-06-19 02:00:00 13.3 4 Noroeste 6 Oeste 0 907.4 -0.7 82
2018-06-19 01:00:00 14.3 3 Oeste 6 Noroeste 0 908.1 0.3 74
2018-06-19 00:00:00 16.5 4 Noroeste 7 Nordeste 0 908.1 0.7 64
2018-06-18 23:00:00 19.7 3 Noroeste 23 Noroeste 0 908.1 0.5 52
2018-06-18 22:00:00 21 12 Noroeste 25 Noroeste 0 907.8 0.3 49
2018-06-18 21:00:00 23.7 10 Norte 23 Noroeste 0 907.4 -0.3 45
2018-06-18 20:00:00 25.7 10 Norte 24 Norte 0 907.6 -0.3 41
2018-06-18 19:00:00 26.7 10 Norte 23 Noroeste 0 907.5 -1 39
2018-06-18 18:00:00 26.6 11 Noroeste 26 Noroeste 0 907.7 -1.3 39
2018-06-18 17:00:00 26.4 12 Noroeste 26 Noroeste 0 907.9 -1.4 38
2018-06-18 16:00:00 26.3 11 Noroeste 27 Noroeste 0 908.5 -1.1 39
2018-06-18 15:00:00 25.5 12 Noroeste 23 Norte 0 909 -0.7 39
2018-06-18 14:00:00 25 12 Noroeste 28 Norte 0 909.3 -0.4 42
2018-06-18 13:00:00 24.7 12 Noroeste 33 Noroeste 0 909.6 0.1 43
2018-06-18 12:00:00 23.9 13 Norte 31 Norte 0 909.7 -0.2 41
2018-06-18 11:00:00 23.3 9 Norte 23 Noroeste 0 909.7 0.1 40
2018-06-18 10:00:00 -- 10 Norte 22 Norte 0 909.5 0.1 --
2018-06-18 09:00:00 19.2 5 Noroeste 9 Oeste 0 909.9 0.5 55
2018-06-18 08:00:00 15.6 4 Noroeste 14 Noroeste 0 909.6 0.1 64
2018-06-18 07:00:00 10.6 4 Noroeste 10 Oeste 0 909.4 0 74
2018-06-18 06:00:00 11.1 2 Norte 8 Noroeste 0 909.4 -0.4 73
2018-06-18 05:00:00 11.2 2 Oeste 8 Noroeste 0 909.5 -0.2 71
2018-06-18 04:00:00 12.9 0 Calma 12 Noroeste 0 909.4 -0.8 63
2018-06-18 03:00:00 13.4 4 Noroeste 13 Norte 0 909.8 -0.6 62
2018-06-18 02:00:00 13.5 5 Noroeste 12 Norte 0 909.7 -0.4 63
2018-06-18 01:00:00 14.6 6 Noroeste 12 Noroeste 0 910.2 0.8 57
2018-06-18 00:00:00 16.7 7 Noroeste 17 Noroeste 0 910.4 1.3 48
2018-06-17 23:00:00 17 2 Norte 16 Noroeste 0 910.1 1.6 47
2018-06-17 22:00:00 18.5 2 Norte 9 Noroeste 0 909.4 1 47
2018-06-17 21:00:00 23.2 4 Norte 23 Noroeste 0 909.1 0.6 34
2018-06-17 20:00:00 24.2 10 Noroeste 26 Noroeste 0 908.5 0.1 28
2018-06-17 19:00:00 24.8 12 Noroeste 22 Noroeste 0 908.4 0.1 26
2018-06-17 18:00:00 25 10 Noroeste 26 Noroeste 0 908.5 0.1 27
2018-06-17 17:00:00 24.8 13 Noroeste 26 Noroeste 0 908.4 -0.1 35
2018-06-17 16:00:00 25 12 Noroeste 24 Noroeste 0 908.3 0.5 38
2018-06-17 15:00:00 24.8 10 Noroeste 26 Noroeste 0 908.4 0.3 39
2018-06-17 14:00:00 24.1 10 Noroeste 22 Oeste 0 908.5 0.4 41
2018-06-17 13:00:00 24.3 7 Norte 22 Noroeste 0 907.8 0 39
2018-06-17 12:00:00 23.4 8 Noroeste -- -- -- 908.1 0.4 40
2018-06-17 11:00:00 23.3 5 Nordeste 16 Noroeste 0 908.1 0.8 41
2018-06-17 10:00:00 19.5 3 Oeste 6 Oeste 0 907.8 0.9 47
2018-06-17 09:00:00 14.8 5 Oeste 9 Oeste 0 907.7 1.1 57
2018-06-17 08:00:00 10.6 5 Oeste 10 Oeste 0 907.3 0.5 71
2018-06-17 07:00:00 6.9 3 Oeste 5 Oeste 0 906.9 0.3 79
2018-06-17 06:00:00 7.6 2 Noroeste 9 Norte 0 906.6 0.2 74
2018-06-17 05:00:00 8.4 2 Noroeste 10 Oeste 0 906.8 0.5 67
2018-06-17 04:00:00 10.1 3 Noroeste 14 Noroeste 0 906.6 0.6 59
2018-06-17 03:00:00 10.5 6 Oeste 14 Noroeste 0 906.4 0.4 60
2018-06-17 02:00:00 11.4 4 Noroeste 14 Oeste 0 906.3 0.9 59
2018-06-17 01:00:00 12 5 Noroeste 10 Oeste 0 906 1.2 60
2018-06-17 00:00:00 13.5 3 Noroeste 14 Oeste 0 906 1.7 55
2018-06-16 23:00:00 17.1 8 Noroeste 27 Noroeste 0 905.4 1.2 42
2018-06-16 22:00:00 19.7 6 Noroeste 21 Norte 0 904.8 1.1 34
2018-06-16 21:00:00 23 8 Noroeste 20 Noroeste 0 904.3 0.6 27
2018-06-16 20:00:00 24.4 7 Noroeste 23 Norte 0 904.2 0.4 29
2018-06-16 19:00:00 24.9 12 Noroeste 23 Oeste 0 903.7 -0.1 29
2018-06-16 18:00:00 25.3 11 Noroeste 25 Noroeste 0 903.7 0 30
2018-06-16 17:00:00 25.1 13 Noroeste 31 Noroeste 0 903.8 -0.4 35
2018-06-16 16:00:00 25 12 Noroeste 27 Noroeste 0 903.8 -0.4 38
2018-06-16 15:00:00 24.4 8 Noroeste 28 Noroeste 0 903.7 -0.3 37
2018-06-16 14:00:00 24 11 Noroeste 22 Noroeste 0 904.2 0.5 41
2018-06-16 13:00:00 24.1 9 Norte 24 Norte 0 904.2 0.4 41
2018-06-16 12:00:00 23.1 11 Norte 24 Norte 0 904 0.3 42
2018-06-16 11:00:00 22.6 9 Norte 21 Norte 0 903.7 0.3 42
2018-06-16 10:00:00 21 6 Noroeste 14 Norte 0 903.8 0.3 47
2018-06-16 09:00:00 18.1 0 Calma 8 Oeste 0 903.7 0.5 65
2018-06-16 08:00:00 13.5 0 Calma 8 Noroeste 0 903.4 0.5 78
2018-06-16 07:00:00 10 0 Calma 10 Oeste 0 903.5 0.1 87
2018-06-16 06:00:00 9.9 0 Calma 9 Oeste 0 903.2 -0.2 87
2018-06-16 05:00:00 10.4 3 Oeste 8 Oeste 0 902.9 -0.6 87
2018-06-16 04:00:00 11.2 0 Calma 6 Noroeste 0 903.4 -0.2 83
2018-06-16 03:00:00 12.4 5 Oeste 8 Oeste 0 903.4 0 83
2018-06-16 02:00:00 13.9 2 Noroeste 8 Noroeste 0 903.5 0.3 77
2018-06-16 01:00:00 14.7 2 Noroeste 8 Oeste 0 903.6 0.8 74
2018-06-16 00:00:00 15.5 5 Noroeste 9 Noroeste 0 903.4 1 72
2018-06-15 23:00:00 17.9 3 Noroeste 17 Norte 0 903.2 1 61
2018-06-15 22:00:00 19.6 10 Norte 25 Norte 0 902.8 0.7 55
2018-06-15 21:00:00 22.3 8 Norte 20 Noroeste 0 902.4 0 46
2018-06-15 20:00:00 24.6 8 Norte 23 Noroeste 0 902.2 -0.2 42
2018-06-15 19:00:00 24.8 10 Noroeste -- -- -- 902.1 -0.9 41
2018-06-15 18:00:00 25.1 13 Noroeste 24 Noroeste 0 902.4 -0.8 39
2018-06-15 17:00:00 25.6 8 Noroeste 25 Norte 0 902.4 -0.9 40
2018-06-15 16:00:00 25.2 9 Noroeste 27 Noroeste 0 903 -0.6 40
2018-06-15 15:00:00 24.6 10 Noroeste 23 Noroeste 0 903.2 -0.6 41
2018-06-15 14:00:00 23.6 10 Norte 23 Norte 0 903.3 -0.4 40
2018-06-15 13:00:00 22.9 9 Noroeste 22 Noroeste 0 903.6 -0.1 42
2018-06-15 12:00:00 22.2 10 Noroeste 24 Noroeste 0 903.8 0.1 43
2018-06-15 11:00:00 20.9 14 Noroeste 26 Noroeste 0 903.7 0.4 43
2018-06-15 10:00:00 20.2 13 Norte 29 Norte 0 903.7 0.4 41
2018-06-15 09:00:00 19.4 8 Norte 17 Norte 0 903.7 0.4 39
2018-06-15 08:00:00 16 5 Norte 15 Norte 0 903.3 0.2 50
2018-06-15 07:00:00 10.9 5 Norte 13 Norte 0 903.3 -0.3 63
2018-06-15 06:00:00 10.2 3 Noroeste 8 Oeste 0 903.3 -0.5 65
2018-06-15 05:00:00 10.3 4 Noroeste 10 Oeste 0 903.1 -0.8 65
2018-06-15 04:00:00 10.4 5 Noroeste 13 Oeste 0 903.6 -0.9 65
2018-06-15 03:00:00 10.3 3 Noroeste 10 Noroeste 0 903.8 -0.9 68
2018-06-15 02:00:00 11.2 7 Oeste 16 Norte 0 903.9 -0.9 62
2018-06-15 01:00:00 13.6 6 Norte 13 Nordeste 0 904.5 0.4 54
2018-06-15 00:00:00 14.5 8 Norte 14 Norte 0 904.7 0.8 51
2018-06-14 23:00:00 15.3 6 Norte 13 Oeste 0 904.8 1 48
2018-06-14 22:00:00 17.5 8 Noroeste 26 Noroeste 0 904.1 0.4 41
2018-06-14 21:00:00 20.2 5 Noroeste 30 Noroeste 0 903.9 0.3 37
2018-06-14 20:00:00 20.7 12 Noroeste 25 Noroeste 0 903.8 0.2 37
2018-06-14 19:00:00 20.7 14 Noroeste 31 Noroeste 0 903.7 0 37
2018-06-14 18:00:00 21.1 16 Noroeste 32 Oeste 0 903.6 -0.2 36
2018-06-14 17:00:00 21.1 13 Noroeste 36 Noroeste 0 903.6 -0.5 37
2018-06-14 16:00:00 20.6 18 Noroeste 30 Noroeste 0 903.7 -0.3 37
2018-06-14 15:00:00 19.8 15 Noroeste 37 Noroeste 0 903.8 -0.2 40
2018-06-14 14:00:00 19.3 16 Noroeste 37 Norte 0 904.1 0.3 40
2018-06-14 13:00:00 18.6 16 Noroeste 35 Norte 0 904 0.1 39
2018-06-14 12:00:00 17.8 15 Noroeste 36 Norte 0 904 0.2 37
2018-06-14 11:00:00 17.2 13 Noroeste 29 Noroeste 0 903.8 0.3 38
2018-06-14 10:00:00 16 8 Noroeste 18 Norte 0 903.9 0.1 44
2018-06-14 09:00:00 -- 3 Norte 6 Nordeste 0 903.8 -0.2 --
2018-06-14 08:00:00 9.2 0 Calma 6 Oeste 0 903.5 -0.6 79
2018-06-14 07:00:00 7.4 5 Noroeste 12 Norte 0 903.8 -0.5 79
2018-06-14 06:00:00 7.8 4 Noroeste 13 Norte 0 904 -0.5 74
2018-06-14 05:00:00 9.7 4 Norte 14 Norte 0 904.1 -0.8 69
2018-06-14 04:00:00 10.5 9 Norte 17 Norte 0 904.3 -1 67
2018-06-14 03:00:00 10.3 8 Norte 19 Noroeste 0 904.5 -0.8 67
2018-06-14 02:00:00 10.6 11 Norte -- -- -- 904.9 -0.5 69
2018-06-14 01:00:00 10.4 7 Oeste 15 Norte 0 905.3 0.4 66
2018-06-14 00:00:00 11.8 5 Norte 21 Norte 0 905.3 0.7 60
2018-06-13 23:00:00 12.8 11 Noroeste 24 Noroeste 0 905.4 0.6 57
2018-06-13 22:00:00 13.4 9 Noroeste 16 Noroeste 0 904.9 0.3 55
2018-06-13 21:00:00 16 10 Noroeste 25 Noroeste 0 904.6 -0.1 44
2018-06-13 20:00:00 17.6 11 Noroeste 27 Noroeste 0 904.8 0 43
2018-06-13 19:00:00 18.4 11 Norte 32 Noroeste 0 904.6 -0.2 42
2018-06-13 18:00:00 18.4 11 Norte 28 Norte 0 904.7 -0.7 43
2018-06-13 17:00:00 18.6 15 Noroeste 25 Noroeste 0 904.8 -0.7 41
2018-06-13 16:00:00 18.5 15 Oeste 32 Noroeste 0 904.8 -0.9 44
2018-06-13 15:00:00 17.9 16 Noroeste -- -- -- 905.4 0.1 47
2018-06-13 14:00:00 17.4 12 Noroeste -- -- -- 905.5 -0.3 48
2018-06-13 13:00:00 16.7 13 Noroeste 32 Noroeste 0 905.7 0.2 49
2018-06-13 12:00:00 16.1 11 Noroeste 28 Norte 0 905.3 -0.7 52
2018-06-13 11:00:00 15 10 Noroeste 26 Norte 0 905.8 -0.2 55
2018-06-13 10:00:00 14.1 6 Noroeste 19 Noroeste 0 905.5 -0.4 58
2018-06-13 09:00:00 11.1 3 Noroeste 22 Noroeste 0 906 0.4 70
2018-06-13 08:00:00 10.4 10 Noroeste 20 Noroeste 0 906 0.3 74
2018-06-13 07:00:00 7.4 0 Calma 10 Noroeste 0 905.9 0.5 80
2018-06-13 06:00:00 8.4 2 Noroeste 22 Noroeste 0 905.6 0.3 75
2018-06-13 05:00:00 9.8 8 Oeste 20 Oeste 0 905.7 0.2 71
2018-06-13 04:00:00 9.2 0 Calma 26 Noroeste 0 905.4 -0.1 72
2018-06-13 03:00:00 9.8 5 Noroeste 16 Norte 0 905.3 -0.1 74
2018-06-13 02:00:00 9.4 3 Noroeste 10 Noroeste 0 905.5 0.3 78
2018-06-13 01:00:00 9.8 0 Calma 8 Oeste 0 905.5 1.1 77
2018-06-13 00:00:00 12.2 2 Noroeste 22 Norte 0 905.4 1.7 71
2018-06-12 23:00:00 13 0 Calma 11 Noroeste 0 905.2 1.8 73
2018-06-12 22:00:00 14 8 Noroeste 18 Noroeste 0 904.4 1.1 72
2018-06-12 21:00:00 15.8 6 Noroeste 18 Oeste 0 903.7 -0.1 58
2018-06-12 20:00:00 15.7 4 Nordeste 14 Oeste 0 903.4 0 75
2018-06-12 19:00:00 13.6 4 Norte 16 Norte 0.2 903.3 0 78
2018-06-12 18:00:00 13.3 6 Norte 30 Norte 2 903.8 0.3 79
2018-06-12 17:00:00 17.3 12 Noroeste 26 Noroeste 0 903.4 -0.4 52
2018-06-12 16:00:00 18.6 10 Noroeste 24 Oeste 0 903.3 -0.9 48
2018-06-12 15:00:00 17.7 11 Noroeste -- -- -- 903.5 -0.1 54
2018-06-12 14:00:00 15.1 9 Noroeste 23 Noroeste 0 903.8 0.6 62
2018-06-12 13:00:00 14.2 12 Oeste 28 Noroeste 0 904.2 1.9 64
2018-06-12 12:00:00 15 8 Oeste 18 Oeste 0 903.6 1.3 61
2018-06-12 11:00:00 15.2 9 Noroeste 23 Noroeste 0 903.2 1.3 59
2018-06-12 10:00:00 13.9 8 Noroeste 18 Norte 0 902.3 0.9 61
2018-06-12 09:00:00 14 6 Norte 15 Noroeste 0 902.3 1.2 66
2018-06-12 08:00:00 11 0 Calma 11 Oeste 0 901.9 0.6 87
2018-06-12 07:00:00 7.2 0 Calma 8 Nordeste 0 901.4 0 86
2018-06-12 06:00:00 8.5 3 Noroeste 9 Noroeste 0 901.1 -0.4 84
2018-06-12 05:00:00 8.4 0 Calma 20 Noroeste 0 901.3 -0.5 80
2018-06-12 04:00:00 9.8 5 Noroeste 12 Noroeste 0 901.4 -0.3 77
2018-06-12 03:00:00 9.4 0 Calma 11 Noroeste 0 901.5 -0.3 77
2018-06-12 02:00:00 10.1 5 Noroeste 15 Oeste 0 901.8 0.1 72
2018-06-12 01:00:00 9.8 0 Calma 15 Norte 0 901.7 0.7 72
2018-06-12 00:00:00 10.9 5 Norte 16 Nordeste 0 901.8 1.2 70
2018-06-11 23:00:00 11.9 4 Noroeste 17 Noroeste 0 901.7 1.5 68
2018-06-11 22:00:00 12.6 5 Noroeste 22 Noroeste 0 901 1.2 65
2018-06-11 21:00:00 13.9 2 Noroeste 10 Oeste 0 900.6 1.7 64
2018-06-11 20:00:00 13.1 9 Noroeste 26 Oeste 0 900.2 0.5 67
2018-06-11 19:00:00 14.5 13 Noroeste 27 Noroeste 0 899.8 -0.1 62
2018-06-11 18:00:00 14.4 2 Oeste 17 Oeste 0.3 898.9 -1.2 72
2018-06-11 17:00:00 15.7 3 Noroeste 13 Oeste 0 899.7 -0.6 62
2018-06-11 16:00:00 14.9 5 Noroeste 11 Noroeste 0.3 899.9 -0.6 66
2018-06-11 15:00:00 14.4 4 Oeste 13 Norte 0.1 900.1 0 66
2018-06-11 14:00:00 14.7 2 Nordeste 10 Este 0 900.3 0.5 65
2018-06-11 13:00:00 12.9 0 Calma 9 Este 0 900.5 0.8 74
2018-06-11 12:00:00 12.3 4 Nordeste 22 Norte 0 900.1 0.7 74
2018-06-11 11:00:00 15.2 4 Norte 10 Nordeste 0 899.8 0.8 58
2018-06-11 10:00:00 13.7 0 Calma 13 Nordeste 0 899.7 0.7 67
2018-06-11 09:00:00 11.2 3 Este 6 Este 0 899.4 0.8 85
2018-06-11 08:00:00 10 0 Calma 4 Norte 0 899 0.4 90
2018-06-11 07:00:00 9.6 0 Calma 6 Nordeste 0 899 0.3 90
2018-06-11 06:00:00 10 0 Calma 5 Noroeste 0.1 898.6 -0.7 90
2018-06-11 05:00:00 9.7 0 Calma 3 Noroeste 0 898.6 -1 90
2018-06-11 04:00:00 9.7 0 Calma 4 Nordeste 0 898.7 -1.1 90
2018-06-11 03:00:00 9.7 3 Nordeste 5 Nordeste 0 899.3 -0.7 90
2018-06-11 02:00:00 9.6 0 Calma 4 Noroeste 0 899.6 -0.3 89
2018-06-11 01:00:00 10 0 Calma 4 Noroeste 0 899.8 0.5 89
2018-06-11 00:00:00 10.1 0 Calma 5 Noroeste 0.1 900 0.9 88
2018-06-10 23:00:00 10.3 0 Calma 4 Oeste 0 899.9 1 87
2018-06-10 22:00:00 10.3 0 Calma 5 Noroeste 0 899.3 0.4 84
2018-06-10 21:00:00 -- 0 Calma 5 Este 0 899.1 0.5 --
2018-06-10 20:00:00 11.5 3 Nordeste 8 Norte 0 898.9 0.4 78
2018-06-10 19:00:00 11.2 3 Norte 14 Noroeste 0.7 898.9 0.3 78
2018-06-10 18:00:00 12 0 Calma 26 Oeste 1.4 898.6 -0.4 73
2018-06-10 17:00:00 15.6 7 Noroeste 18 Norte 0 898.5 -0.9 56
2018-06-10 16:00:00 14.2 8 Noroeste 18 Norte 0 898.6 -1.1 59
2018-06-10 15:00:00 14.8 4 Norte 11 Nordeste 0 899 -0.7 59
2018-06-10 14:00:00 13.4 4 Nordeste 9 Nordeste 0 899.4 -0.4 67
2018-06-10 13:00:00 12.3 0 Calma 10 Este 0 899.7 -0.3 75
2018-06-10 12:00:00 12.8 0 Calma 6 Este 0 899.7 -0.4 72
2018-06-10 11:00:00 12.1 3 Nordeste 8 Nordeste 0 899.8 -0.1 70
2018-06-10 10:00:00 12.2 5 Nordeste 8 Este 0 900 0.3 68
2018-06-10 09:00:00 10.6 0 Calma -- -- -- 900.1 0.2 81
2018-06-10 08:00:00 9.5 0 Calma 5 Nordeste 0 899.9 -0.2 87
2018-06-10 07:00:00 7.8 3 Nordeste 8 Noroeste 0 899.7 -0.8 88
2018-06-10 06:00:00 7.7 4 Oeste 10 Oeste 0 899.9 -0.9 88
2018-06-10 05:00:00 7.4 0 Calma 4 Este 0 900.1 -0.9 88
2018-06-10 04:00:00 7.3 0 Calma 4 Noroeste 0 900.5 -0.9 88
2018-06-10 03:00:00 6.8 0 Calma 6 Noroeste 0 900.8 -0.5 88
2018-06-10 02:00:00 6.1 2 Oeste 4 Oeste 0 901 0 84
2018-06-10 01:00:00 8.1 0 Calma 8 Norte 0 901.4 1.5 80
2018-06-10 00:00:00 9.2 0 Calma 8 Nordeste 0 901.3 1.8 76
2018-06-09 23:00:00 10.6 4 Nordeste 14 Nordeste 0 901 1.9 67
2018-06-09 22:00:00 11.8 0 Calma 18 Nordeste 0 899.9 1.2 62
2018-06-09 21:00:00 13.1 9 Nordeste 17 Nordeste 0 899.5 0.4 59
2018-06-09 20:00:00 14 5 Norte 9 Norte 0 899.1 -0.1 63
2018-06-09 19:00:00 14.4 4 Oeste 18 Noroeste 0 898.7 -0.4 59
2018-06-09 18:00:00 13.6 10 Noroeste 20 Oeste 0 899.1 -0.3 63
2018-06-09 17:00:00 14.8 5 Norte 15 Nordeste 0 899.2 -0.5 56
2018-06-09 16:00:00 15.2 7 Norte 23 Nordeste 0 899.1 -0.8 54
2018-06-09 15:00:00 15.9 10 Norte 20 Nordeste 0 899.4 -0.4 55
2018-06-09 14:00:00 14.5 9 Nordeste 21 Nordeste 0 899.7 0.8 62
2018-06-09 13:00:00 13.9 9 Nordeste 23 Norte 0 899.9 0.1 65
2018-06-09 12:00:00 13.4 11 Nordeste 22 Nordeste 0 899.8 0.1 66
2018-06-09 11:00:00 14.6 10 Nordeste 18 Nordeste 0 898.9 -0.8 69
2018-06-09 10:00:00 13.2 7 Nordeste 15 Norte 0 899.8 0.3 88
2018-06-09 09:00:00 10.4 3 Oeste 6 Oeste 0 899.7 0.3 93
2018-06-09 08:00:00 8.3 0 Calma 5 Este 0 899.7 0.2 93
2018-06-09 07:00:00 7.9 0 Calma 8 Oeste 0 899.5 -0.1 93
2018-06-09 06:00:00 7.7 4 Oeste 8 Noroeste 0 899.4 -0.5 93
2018-06-09 05:00:00 7.6 2 Noroeste 7 Oeste 0 899.5 -0.6 92
2018-06-09 04:00:00 7.4 0 Calma 7 Nordeste 0 899.6 -1 91
2018-06-09 03:00:00 7.8 0 Calma 4 Oeste 0 899.9 -0.6 90
2018-06-09 02:00:00 8.5 0 Calma 5 Nordeste 0 900.1 -0.7 90
2018-06-09 01:00:00 9.2 0 Calma 3 Oeste 0 900.6 0.8 89
2018-06-09 00:00:00 10.8 0 Calma 5 Nordeste 0 900.5 1 88
2018-06-08 23:00:00 10.7 3 Nordeste 11 Este 0 900.8 1.7 87
2018-06-08 22:00:00 11.2 5 Nordeste 28 Norte 0 899.8 0.5 85
2018-06-08 21:00:00 12.5 10 Nordeste 31 Nordeste 2 899.5 0.1 89
2018-06-08 20:00:00 13.5 8 Nordeste 16 Nordeste 0.5 899.1 -0.5 86
2018-06-08 19:00:00 14.2 4 Nordeste 20 Norte 0 899.3 -0.8 83
2018-06-08 18:00:00 14.6 5 Nordeste 19 Nordeste 1 899.4 -1 89
2018-06-08 17:00:00 13 4 Norte 10 Norte 0 899.6 -1.3 89
2018-06-08 16:00:00 12.5 5 Nordeste 22 Nordeste 0.4 900.1 -1.1 89
2018-06-08 15:00:00 12.3 4 Nordeste 13 Este 0.9 900.4 -1 86
2018-06-08 14:00:00 12.8 4 Nordeste 9 Nordeste 0 900.9 -0.4 84
2018-06-08 13:00:00 12.9 8 Nordeste 15 Nordeste 0.2 901.2 0 90
2018-06-08 12:00:00 11.4 10 Nordeste 18 Nordeste 0.4 901.4 0.4 90
2018-06-08 11:00:00 11.4 5 Nordeste 14 Este 1.3 901.3 0.2 90
2018-06-08 10:00:00 11.3 6 Nordeste 13 Norte 0.3 901.2 0.4 90
2018-06-08 09:00:00 11.2 4 Nordeste 17 Nordeste 0.6 901 0.2 90
2018-06-08 08:00:00 10.9 3 Nordeste 12 Este 0.6 901.1 0.1 88
2018-06-08 07:00:00 11 0 Calma 7 Este 0 900.8 -0.6 90
2018-06-08 06:00:00 10.7 0 Calma 4 Nordeste 0 900.8 -0.9 91
2018-06-08 05:00:00 10.4 2 Noroeste 4 Noroeste 0 901 -1.2 90
2018-06-08 04:00:00 10.7 0 Calma 6 Noroeste 0 901.4 -1.1 90
2018-06-08 03:00:00 11.3 0 Calma 2 Noroeste 0 901.7 -0.8 90
2018-06-08 02:00:00 11.6 0 Calma 7 Noroeste 0 902.2 -0.6 89
2018-06-08 01:00:00 11.8 0 Calma 4 Noroeste 0 902.5 -0.1 89
2018-06-08 00:00:00 12.4 0 Calma 5 Nordeste 0 902.5 0 88
2018-06-07 23:00:00 12.3 3 Noroeste 9 Oeste 0 902.8 0.2 88
2018-06-07 22:00:00 13.4 0 Calma 4 Oeste 0 902.6 -0.1 87
2018-06-07 21:00:00 13.8 0 Calma 8 Nordeste 0 902.5 0.2 85
2018-06-07 20:00:00 13.9 4 Nordeste 10 Norte 0 902.6 0.2 85
2018-06-07 19:00:00 14.2 2 Noroeste 18 Oeste 3.7 902.7 0.2 82
2018-06-07 18:00:00 17.3 5 Norte 12 Norte 0 902.3 -0.4 60
2018-06-07 17:00:00 17.4 6 Norte 12 Norte 0 902.4 -0.4 65
2018-06-07 16:00:00 17.4 3 Noroeste 13 Nordeste 0.2 902.5 -0.9 59
2018-06-07 15:00:00 17.3 6 Nordeste 13 Nordeste 0 902.7 -0.6 53
2018-06-07 14:00:00 17.3 6 Nordeste 13 Nordeste 0 902.8 -0.6 55
2018-06-07 13:00:00 16.7 6 Nordeste 21 Norte 0 903.4 -0.2 53
2018-06-07 12:00:00 17.7 7 Nordeste 16 Nordeste 0 903.3 -0.3 50
2018-06-07 11:00:00 15.9 7 Este 11 Este 0 903.4 0 52
2018-06-07 10:00:00 14.8 4 Nordeste 8 Nordeste 0 903.6 0.3 62
2018-06-07 09:00:00 10.9 0 Calma 5 Noroeste 0 903.6 0.7 79
2018-06-07 08:00:00 8.6 0 Calma 7 Noroeste 0 903.4 0.7 86
2018-06-07 07:00:00 7.7 0 Calma 6 Oeste 0 903.3 0.3 85
2018-06-07 06:00:00 8.4 0 Calma 5 Oeste 0 902.9 0.3 85
2018-06-07 05:00:00 8.5 0 Calma 5 Noroeste 0 902.7 -0.2 87
2018-06-07 04:00:00 7.7 0 Calma 3 Oeste 0 903 0 86
2018-06-07 03:00:00 8.2 0 Calma 8 Oeste 0 902.6 -0.5 83
2018-06-07 02:00:00 8.3 0 Calma 6 Noroeste 0 902.9 0.1 79
2018-06-07 01:00:00 9.9 0 Calma 11 Noroeste 0 903 0.8 73
2018-06-07 00:00:00 11.8 6 Oeste 11 Oeste 0 903.1 1.5 63
2018-06-06 23:00:00 12.9 7 Oeste 17 Noroeste 0 902.8 1.7 58
2018-06-06 22:00:00 -- 6 Nordeste -- -- -- 902.2 1.3 --
2018-06-06 21:00:00 14 0 Calma 22 Noroeste 0 901.6 1.1 54
2018-06-06 20:00:00 14.6 8 Noroeste 22 Oeste 0 901.1 1.1 52
2018-06-06 19:00:00 14 12 Noroeste 27 Noroeste 0 900.9 0.7 54
2018-06-06 18:00:00 15.4 16 Noroeste 32 Noroeste 0 900.5 0.1 52
2018-06-06 17:00:00 16.5 15 Noroeste 32 Noroeste 0 900 -0.5 48
2018-06-06 16:00:00 15.5 14 Noroeste 28 Norte 0 900.2 -0.5 53
2018-06-06 15:00:00 14.9 14 Noroeste 26 Noroeste 0 900.4 0.1 50
2018-06-06 14:00:00 14.4 10 Norte 27 Norte 0 900.5 0.4 55
2018-06-06 13:00:00 13.5 12 Norte 31 Norte 0 900.7 0.9 59
2018-06-06 12:00:00 12.5 14 Noroeste 28 Noroeste 0 900.3 0.7 62
2018-06-06 11:00:00 11.6 8 Noroeste 16 Oeste 0 900.1 0.9 67
2018-06-06 10:00:00 11.7 0 Calma 12 Norte 0 899.8 0.6 71
2018-06-06 09:00:00 10.3 0 Calma 6 Nordeste 0 899.6 0.6 76
2018-06-06 08:00:00 8.9 0 Calma 3 Nordeste 0.1 899.2 0.3 87
2018-06-06 07:00:00 7.7 2 Noroeste 8 Noroeste 2.1 899.2 0.5 87
2018-06-06 06:00:00 8 5 Noroeste 10 Noroeste 0.7 899 0.6 83
2018-06-06 05:00:00 8.5 3 Nordeste 6 Nordeste 0 898.9 -0.4 83
2018-06-06 04:00:00 8.7 2 Nordeste 5 Nordeste 0 898.7 -0.8 83
2018-06-06 03:00:00 8.9 0 Calma 4 Noroeste 0 898.4 -1.4 81
2018-06-06 02:00:00 8.7 0 Calma 4 Nordeste 0 899.3 -0.5 80
2018-06-06 01:00:00 8.9 0 Calma 5 Nordeste 0 899.5 0.1 77
2018-06-06 00:00:00 9 0 Calma 6 Nordeste 0 899.8 0.7 73
2018-06-05 23:00:00 9.4 0 Calma 12 Oeste 0 899.8 0.8 73
2018-06-05 22:00:00 9 4 Oeste 12 Oeste 0 899.4 0.6 69
2018-06-05 21:00:00 10.6 6 Oeste 24 Noroeste 0 899.1 0.7 63
2018-06-05 20:00:00 10.7 14 Noroeste 32 Noroeste 0 899 0.6 65
2018-06-05 19:00:00 11.6 11 Noroeste 21 Noroeste 0 898.8 0.2 64
2018-06-05 18:00:00 11.3 8 Nordeste 19 Norte 0.1 898.4 -0.3 72
2018-06-05 17:00:00 12.5 5 Nordeste 18 Nordeste 0 898.4 -0.6 59
2018-06-05 16:00:00 13.9 8 Nordeste 17 Norte 0 898.6 -0.9 53
2018-06-05 15:00:00 14.2 0 Calma 20 Norte 0 898.7 -0.7 53
2018-06-05 14:00:00 13.9 6 Nordeste 12 Nordeste 0.1 899 -0.5 54
2018-06-05 13:00:00 -- 0 Calma 16 Nordeste 0 899.5 -0.1 --
2018-06-05 12:00:00 11.6 7 Noroeste 19 Noroeste 0 899.4 -0.1 57
2018-06-05 11:00:00 11.2 6 Noroeste 16 Noroeste 0 899.5 0.3 62
2018-06-05 10:00:00 10.5 10 Noroeste 24 Oeste 0 899.6 0.4 62
2018-06-05 09:00:00 11.2 4 Norte 14 Norte 0 899.5 0.5 63
2018-06-05 08:00:00 8.3 5 Noroeste 12 Noroeste 0 899.2 -0.2 80
2018-06-05 07:00:00 7.3 0 Calma 13 Norte 0 899.2 -0.5 80
2018-06-05 06:00:00 7.2 3 Norte 14 Norte 0 899 -0.9 80
2018-06-05 05:00:00 7.5 4 Norte 20 Noroeste 0.8 899.4 -0.4 80
2018-06-05 04:00:00 8.8 10 Noroeste 19 Oeste 0 899.7 -0.5 73
2018-06-05 03:00:00 9.2 3 Norte 22 Noroeste 0 899.9 -0.4 70
2018-06-05 02:00:00 9.4 8 Noroeste 22 Oeste 0 899.8 -0.4 68
2018-06-05 01:00:00 9.3 7 Noroeste 26 Noroeste 0.2 900.2 0.8 74
2018-06-05 00:00:00 10.2 6 Noroeste 23 Oeste 0.2 900.3 1.2 72
2018-06-04 23:00:00 11.2 11 Oeste 20 Noroeste 0 900.2 1.2 62
2018-06-04 22:00:00 12 9 Noroeste 17 Oeste 0 899.4 0.5 59
2018-06-04 21:00:00 13.7 3 Noroeste 6 Noroeste 0 899.1 0.9 56
2018-06-04 20:00:00 14.1 5 Noroeste 17 Noroeste 0 899 -0.2 54
2018-06-04 19:00:00 14.8 4 Nordeste 17 Este 0 898.9 -0.9 58
2018-06-04 18:00:00 16.2 4 Norte 15 Norte 0 898.2 -1.6 48
2018-06-04 17:00:00 15.8 7 Nordeste 14 Este 0 899.2 -1.1 54
2018-06-04 16:00:00 14.8 5 Norte 14 Nordeste 0 899.8 -0.6 62
2018-06-04 15:00:00 12.7 5 Nordeste 15 Nordeste 0 899.8 -0.4 67
2018-06-04 14:00:00 12.4 3 Norte 15 Nordeste 0 900.3 0 67
2018-06-04 13:00:00 12.3 5 Norte 16 Noroeste 0 900.4 0.3 67
2018-06-04 12:00:00 13.3 7 Nordeste 18 Este 0 900.2 0.1 70
2018-06-04 11:00:00 13.2 7 Nordeste 14 Nordeste 0.1 900.3 0.4 70
2018-06-04 10:00:00 13.8 7 Nordeste 14 Nordeste 0 900.1 0.2 66
2018-06-04 09:00:00 11.6 5 Nordeste 13 Norte 0 900.1 0.4 76
2018-06-04 08:00:00 9.8 6 Norte 17 Nordeste 0 899.9 0 81
2018-06-04 07:00:00 10.1 5 Norte 11 Norte 0 899.9 -0.1 83
2018-06-04 06:00:00 10.5 0 Calma 6 Nordeste 0 899.7 -0.3 86
2018-06-04 05:00:00 10.4 4 Noroeste 7 Noroeste 0 899.9 -0.9 87
2018-06-04 04:00:00 10.7 2 Noroeste 12 Oeste 0 900 -0.9 86
2018-06-04 03:00:00 11.3 4 Noroeste 10 Norte 0 900 -1.2 87
2018-06-04 02:00:00 11.8 0 Calma 7 Norte 0 900.8 -0.3 90
2018-06-04 01:00:00 12 2 Noroeste 6 Noroeste 0 900.9 0.1 90
2018-06-04 00:00:00 12.3 0 Calma 5 Oeste 0 901.2 0.6 88
2018-06-03 23:00:00 12.8 0 Calma 8 Nordeste 0 901.1 0.7 87
2018-06-03 22:00:00 13.8 0 Calma 5 Noroeste 0 900.8 0.3 87
2018-06-03 21:00:00 14.7 0 Calma 7 Norte 0 900.6 -0.1 81
2018-06-03 20:00:00 14.4 0 Calma 8 Oeste 0.1 900.4 -0.4 80
2018-06-03 19:00:00 14.8 3 Norte 10 Norte 0.1 900.5 0.2 79
2018-06-03 18:00:00 14.4 4 Nordeste 9 Nordeste 0.4 900.7 0.1 83
2018-06-03 17:00:00 14.1 0 Calma 24 Oeste 6.1 900.8 -0.2 80
2018-06-03 16:00:00 16.4 8 Norte 23 Norte 2.6 900.3 -1 69
2018-06-03 15:00:00 18.7 12 Nordeste 27 Este 0 900.6 -1.1 55
2018-06-03 14:00:00 19.2 5 Noroeste 14 Norte 0 901 -0.9 51
2018-06-03 13:00:00 20 4 Norte 12 Noroeste 0 901.3 -0.9 52
2018-06-03 12:00:00 17.9 4 Norte 10 Noroeste 0 901.7 -0.4 61
2018-06-03 11:00:00 15.5 3 Noroeste 9 Noroeste 0 901.9 -0.5 70
2018-06-03 10:00:00 13.7 3 Norte 6 Nordeste 0 902.2 0 81
2018-06-03 09:00:00 10.2 2 Noroeste 7 Noroeste 0 902.1 0 90
2018-06-03 08:00:00 9.4 3 Noroeste 6 Oeste 0 902.4 0.4 90
2018-06-03 07:00:00 8.4 2 Nordeste 8 Noroeste 0 902.2 -0.1 90
2018-06-03 06:00:00 9.1 5 Oeste 9 Oeste 0 902.1 -0.6 89
2018-06-03 05:00:00 10 0 Calma 8 Noroeste 0 902 -1.5 89
2018-06-03 04:00:00 10.6 0 Calma 5 Noroeste 0 902.3 -- 88
2018-06-03 03:00:00 10.6 0 Calma 7 Noroeste 0 902.7 -0.9 88
2018-06-03 02:00:00 11.2 0 Calma 8 Noroeste 0 903.5 -0.6 87
2018-06-03 01:00:00 -- 3 Nordeste 6 Nordeste 0.1 -- -- --
2018-06-03 00:00:00 11.5 3 Noroeste 8 Oeste 0.6 903.6 0.6 86
2018-06-02 23:00:00 11.6 3 Norte 14 Nordeste 2.1 904.1 2.6 84
2018-06-02 22:00:00 12.2 7 Nordeste 37 Este 0.6 904.4 3 79
2018-06-02 21:00:00 13.5 17 Nordeste 31 Nordeste 0 903 1.2 70
2018-06-02 20:00:00 20.7 3 Norte 12 Norte 0 901.5 -0.5 41
2018-06-02 19:00:00 20.8 7 Norte 16 Nordeste 0 901.4 -1 40
2018-06-02 18:00:00 21.4 8 Noroeste 18 Norte 0 901.8 -1.4 39
2018-06-02 17:00:00 20.6 3 Noroeste 16 Norte 0 902 -1.4 41
2018-06-02 16:00:00 20.3 6 Norte 18 Norte 0 902.4 -1.6 41
2018-06-02 15:00:00 20.3 10 Nordeste 21 Nordeste 0 903.2 -1.1 45
2018-06-02 14:00:00 19.3 6 Nordeste 15 Noroeste 0 903.4 -0.8 47
2018-06-02 13:00:00 18.5 2 Norte 10 Nordeste 0 904 -0.8 55
2018-06-02 12:00:00 16.8 3 Norte 9 Noroeste 0 904.3 -0.4 62
2018-06-02 11:00:00 15.2 5 Noroeste 12 Norte 0 904.2 0.1 73
2018-06-02 10:00:00 12.2 6 Oeste 13 Oeste 0.5 904.8 0.7 88
2018-06-02 09:00:00 11 0 Calma 6 Oeste 0.7 904.7 0.5 90
2018-06-02 08:00:00 10.6 3 Oeste 6 Oeste 0 904.1 0 90
2018-06-02 07:00:00 10.1 3 Noroeste 6 Oeste 0 904.1 -0.1 90
2018-06-02 06:00:00 10 3 Nordeste 9 Oeste 0 904.2 -0.4 90
2018-06-02 05:00:00 9.8 7 Oeste 13 Oeste 0 904.1 -1.2 90
2018-06-02 04:00:00 10.4 3 Noroeste 14 Norte 0.1 904.2 -1.3 89
2018-06-02 03:00:00 10.9 9 Noroeste 14 Oeste 4.2 904.6 0 89
2018-06-02 02:00:00 11.5 2 Nordeste 17 Noroeste 0.7 905.3 0.5 85
2018-06-02 01:00:00 11.8 5 Nordeste 21 Nordeste 3.3 905.5 1.7 83
2018-06-02 00:00:00 12.4 0 Calma 40 Norte 0.6 904.6 2.4 79
2018-06-01 23:00:00 12.3 0 Calma 12 Oeste 0 904.8 2.5 81
2018-06-01 22:00:00 13.6 5 Nordeste 42 Norte 0.4 903.8 1.4 68
2018-06-01 21:00:00 20.6 2 Norte 9 Nordeste 0 902.2 -0.2 42
2018-06-01 20:00:00 18.9 5 Nordeste 14 Nordeste 0 902.3 -0.6 44
2018-06-01 19:00:00 19.4 8 Nordeste 21 Norte 0 902.4 -1 42
2018-06-01 18:00:00 20.2 9 Norte 25 Norte 0 902.4 -1.3 41
2018-06-01 17:00:00 20.4 9 Norte 23 Noroeste 0 902.9 -1.5 43
2018-06-01 16:00:00 19.8 11 Norte 30 Noroeste 0 903.4 -1.2 46
2018-06-01 15:00:00 19.2 11 Norte 26 Norte 0 903.7 -1 48
2018-06-01 14:00:00 17.9 11 Nordeste 25 Nordeste 0 904.4 -0.2 49
2018-06-01 13:00:00 -- 12 Nordeste 28 Norte 0 904.6 -0.1 --
2018-06-01 12:00:00 17.2 10 Nordeste 23 Nordeste 0 904.7 -0.3 53
2018-06-01 11:00:00 15.9 8 Nordeste 17 Norte 0 904.6 -0.4 59
2018-06-01 10:00:00 15.8 5 Nordeste 10 Este 0 904.7 -0.2 66
2018-06-01 09:00:00 11.4 2 Nordeste 4 Norte 0 905 0.4 85
2018-06-01 08:00:00 8.4 0 Calma 3 Nordeste 0 905 0.4 90
2018-06-01 07:00:00 7.3 0 Calma 4 Noroeste 0 904.9 0.2 90
2018-06-01 06:00:00 7.4 0 Calma 3 Norte 0 904.6 -0.3 89
2018-06-01 05:00:00 8 0 Calma 5 Oeste 0 904.6 -0.5 89
2018-06-01 04:00:00 7.4 3 Noroeste 10 Oeste 0 904.7 -0.3 87
2018-06-01 03:00:00 8.6 4 Oeste 9 Oeste 0 904.9 -0.3 87
2018-06-01 02:00:00 9.1 4 Oeste 7 Oeste 0 905.1 0.2 85
2018-06-01 01:00:00 9.6 0 Calma 0 Calma 0 905 0.5 80
2018-06-01 00:00:00 12.1 0 Calma 13 Oeste 0 905.2 1.2 72
2018-05-31 23:00:00 13.1 4 Oeste 9 Norte 0 904.9 1.5 73
2018-05-31 22:00:00 14.7 0 Calma 11 Noroeste 0 904.5 1.3 63
2018-05-31 21:00:00 16 4 Noroeste 13 Noroeste 0 904 0.4 55
2018-05-31 20:00:00 17.1 0 Calma 14 Norte 0 903.4 -0.2 48
2018-05-31 19:00:00 18 10 Norte 22 Nordeste 0 903.2 -0.6 44
2018-05-31 18:00:00 18 10 Norte 20 Noroeste 0 903.6 -0.5 46
2018-05-31 17:00:00 17.9 9 Norte 19 Norte 0 903.6 -0.8 47
2018-05-31 16:00:00 17.1 11 Nordeste 21 Nordeste 0 903.8 -0.7 51
2018-05-31 15:00:00 17.8 7 Nordeste 18 Este 0 904.1 -0.4 52
2018-05-31 14:00:00 16.8 5 Nordeste 13 Nordeste 0 904.4 0 58
2018-05-31 13:00:00 15.2 4 Norte 10 Norte 0 904.5 0.2 63
2018-05-31 12:00:00 15 3 Norte 12 Nordeste 0 904.5 0.5 62
2018-05-31 11:00:00 14 3 Nordeste 9 Nordeste 0 904.4 1 66
2018-05-31 10:00:00 12.3 0 Calma 4 Este 0 904.3 1.4 79
2018-05-31 09:00:00 9.7 0 Calma 8 Oeste 0 904 1.4 88
2018-05-31 08:00:00 9 0 Calma 5 Norte 0 903.4 0.7 89
2018-05-31 07:00:00 8 0 Calma 9 Oeste 0 902.9 0.2 87
2018-05-31 06:00:00 8.1 2 Norte 7 Norte 0 902.6 -0.1 83
2018-05-31 05:00:00 10.1 3 Noroeste 7 Noroeste 0 902.7 0.3 78
2018-05-31 04:00:00 10.8 4 Noroeste 17 Oeste 0 902.7 0.1 74
2018-05-31 03:00:00 10.3 4 Oeste 21 Noroeste 0 902.7 0 74
2018-05-31 02:00:00 10.9 5 Norte 24 Noroeste 0 902.4 0.1 73
2018-05-31 01:00:00 11.4 7 Noroeste 31 Norte 0 902.6 1.1 77
2018-05-31 00:00:00 11.1 2 Noroeste 9 Oeste 0 902.7 1.5 88
2018-05-30 23:00:00 11.2 3 Noroeste 7 Oeste 0 902.3 1.5 88
2018-05-30 22:00:00 11.3 3 Noroeste 17 Norte 0 901.5 1.1 85
2018-05-30 21:00:00 11.5 9 Norte 20 Norte 1 901.2 1 82
2018-05-30 20:00:00 13.5 4 Noroeste 17 Noroeste 0 900.8 0.5 74
2018-05-30 19:00:00 14.5 2 Nordeste 10 Nordeste 0 900.4 0 72
2018-05-30 18:00:00 15.3 4 Nordeste 12 Este 0 900.2 -0.3 70
2018-05-30 17:00:00 14.7 6 Nordeste 13 Nordeste 0 900.3 -0.3 72
2018-05-30 16:00:00 13.3 4 Nordeste 13 Nordeste 0 900.4 -0.3 80
2018-05-30 15:00:00 12.8 4 Nordeste 11 Norte 0.2 900.5 0 84
2018-05-30 14:00:00 13 4 Nordeste 14 Nordeste 0 900.6 0.2 77
2018-05-30 13:00:00 13 9 Nordeste 15 Nordeste 0 900.7 0.4 83
2018-05-30 12:00:00 12.7 0 Calma 6 Nordeste 0.2 900.5 0.5 80
2018-05-30 11:00:00 11 2 Nordeste -- -- -- 900.4 1 87
2018-05-30 10:00:00 10.5 0 Calma 6 Noroeste 1.7 900.3 1 89
2018-05-30 09:00:00 10.3 0 Calma 3 Norte 1.1 900 1 89
2018-05-30 08:00:00 10.5 0 Calma 2 Nordeste 0 899.4 0.1 89
2018-05-30 07:00:00 10.4 0 Calma 3 Nordeste 0.1 899.3 -- 89
2018-05-30 06:00:00 10.4 2 Norte 5 Norte 2.1 899 -0.7 88
2018-05-30 05:00:00 10.6 0 Calma 5 Nordeste 0 899.3 -0.9 90
2018-05-30 04:00:00 -- 0 Calma 4 Nordeste 0.1 -- -- --
2018-05-30 03:00:00 11 0 Calma 5 Nordeste 0.9 899.7 -0.8 88
2018-05-30 02:00:00 11 3 Nordeste 6 Nordeste 0 900.2 -0.1 86
2018-05-30 01:00:00 11.1 3 Este 8 Este 0 900.3 0.3 84
2018-05-30 00:00:00 11.5 0 Calma 5 Este 0 900.5 1.1 83
2018-05-29 23:00:00 11.7 0 Calma -- -- 0 900.3 0.9 83
2018-05-29 22:00:00 11.9 0 Calma 4 Noroeste 0 900 0.6 79
2018-05-29 21:00:00 12.6 0 Calma 4 Este 0 899.4 -0.4 76
2018-05-29 20:00:00 12.4 3 Nordeste 13 Este 0 899.4 0.2 79
2018-05-29 19:00:00 12.1 4 Nordeste 14 Este 0.1 899.4 0.6 83
2018-05-29 18:00:00 13.2 10 Nordeste 27 Nordeste 0.1 899.8 0.7 71
2018-05-29 17:00:00 16.5 8 Noroeste 24 Norte 0 899.2 -0.5 44
2018-05-29 16:00:00 18.3 11 Oeste 22 Oeste 0 898.8 -1.3 45
2018-05-29 15:00:00 18.2 5 Nordeste 17 Nordeste 0 899.1 -1.5 46
2018-05-29 14:00:00 18 6 Norte 24 Nordeste 0 899.7 -1 47
2018-05-29 13:00:00 15.9 5 Nordeste 11 Este 0 900.1 -0.8 62
2018-05-29 12:00:00 13.7 0 Calma 5 Norte 0 900.6 -0.1 76
2018-05-29 11:00:00 13.1 3 Nordeste 6 Nordeste 0 900.7 0 78
2018-05-29 10:00:00 12.4 0 Calma 6 Oeste 0 900.9 0.3 85
2018-05-29 09:00:00 10.7 4 Oeste 7 Oeste 0 900.7 0.1 91
2018-05-29 08:00:00 9.5 0 Calma 7 Oeste 0 900.7 0.2 91
2018-05-29 07:00:00 9.1 0 Calma 7 Noroeste 0 900.6 0 91
2018-05-29 06:00:00 9 2 Noroeste 8 Oeste 0 900.6 -0.3 91
2018-05-29 05:00:00 9.2 3 Oeste 7 Oeste 0 900.5 -0.7 91
2018-05-29 04:00:00 9.6 0 Calma 4 Norte 0 900.6 -0.6 91
2018-05-29 03:00:00 9.5 2 Este 5 Nordeste 0 900.9 -0.2 91
2018-05-29 02:00:00 9 3 Oeste 5 Oeste 0.1 901.2 0.2 90
2018-05-29 01:00:00 10.2 0 Calma 6 Oeste 0 901.2 0.6 90
2018-05-29 00:00:00 10.4 0 Calma 4 Noroeste 0 901.1 0.6 88
2018-05-28 23:00:00 11.3 0 Calma 7 Noroeste 0 901 1.2 87
2018-05-28 22:00:00 12.2 4 Noroeste 7 Noroeste 0.2 900.6 1 84
2018-05-28 21:00:00 13.2 0 Calma 4 Noroeste 0.1 900.5 1.1 79
2018-05-28 20:00:00 13.6 0 Calma 9 Este 0 899.8 0.7 76
2018-05-28 19:00:00 13.3 4 Nordeste 18 Noroeste 0.5 899.6 0.3 79
2018-05-28 18:00:00 13.4 11 Noroeste 31 Noroeste 0 899.4 -0.2 69
2018-05-28 17:00:00 15.9 9 Norte 16 Norte 0 899.1 -0.9 66
2018-05-28 16:00:00 16.1 6 Noroeste 14 Noroeste 0 899.3 -0.9 60
2018-05-28 15:00:00 16 3 Noroeste 10 Noroeste 0 899.6 -0.5 72
2018-05-28 14:00:00 14.8 0 Calma 6 Norte 1.3 900 -0.2 79
2018-05-28 13:00:00 13.4 0 Calma 10 Nordeste 7.4 900.2 0.4 80
2018-05-28 12:00:00 15 2 Nordeste -- -- -- 900.1 -0.2 70
2018-05-28 11:00:00 14.5 3 Noroeste 6 Noroeste 0 900.2 0.1 78
2018-05-28 10:00:00 12.8 0 Calma 6 Noroeste 0 899.8 -0.2 84
2018-05-28 09:00:00 11.8 0 Calma 3 Nordeste 0 900.3 0.7 88
2018-05-28 08:00:00 11.4 0 Calma 4 Oeste 0 900.1 0.8 88
2018-05-28 07:00:00 11 0 Calma 5 Nordeste 0 900 0.4 87
2018-05-28 06:00:00 11.1 0 Calma 4 Noroeste 0 899.6 -0.5 86
2018-05-28 05:00:00 11.3 0 Calma 6 Noroeste 0 899.3 -1.2 85
2018-05-28 04:00:00 11.3 0 Calma 5 Oeste 0 899.6 -1.6 86
2018-05-28 03:00:00 11.4 0 Calma 10 Oeste 0 900.1 -1.3 85
2018-05-28 02:00:00 11.7 4 Noroeste 13 Noroeste 0 900.5 -1.1 80
2018-05-28 01:00:00 11.8 4 Noroeste 9 Noroeste 0.1 901.2 0.1 87
2018-05-28 00:00:00 12.2 4 Noroeste 7 Noroeste 0 901.4 0.9 87
2018-05-27 23:00:00 12.3 0 Calma 13 Norte 0.1 901.6 2.1 84
2018-05-27 22:00:00 12.6 4 Norte 26 Nordeste 1.2 901.1 2.3 80
2018-05-27 21:00:00 14.7 12 Nordeste 41 Nordeste 0 900.5 1.5 57
2018-05-27 20:00:00 18.1 9 Norte 24 Norte 0 899.5 0.4 45
2018-05-27 19:00:00 19.5 9 Noroeste 26 Noroeste 0 898.8 -0.4 44
2018-05-27 18:00:00 20 15 Oeste 25 Oeste 0 899 -0.9 42
2018-05-27 17:00:00 20.8 9 Oeste 20 Oeste 0 899.1 -1.3 40
2018-05-27 16:00:00 19.8 7 Noroeste 15 Noroeste 0 899.2 -1.6 42
2018-05-27 15:00:00 20 6 Noroeste 19 Oeste 0 899.9 -0.8 42
2018-05-27 14:00:00 18.6 9 Oeste 17 Oeste 0 900.4 -0.7 43
2018-05-27 13:00:00 20.2 8 Nordeste 19 Este 0 900.8 -0.4 40
2018-05-27 12:00:00 19.9 6 Norte 19 Norte 0 900.7 -0.7 41
2018-05-27 11:00:00 18.6 3 Norte 7 Nordeste 0 901.1 -0.2 44
2018-05-27 10:00:00 15.8 3 Nordeste 6 Nordeste 0 901.2 0.2 57
2018-05-27 09:00:00 12.3 0 Calma 5 Nordeste 0 901.4 0.6 72
2018-05-27 08:00:00 7.8 4 Oeste 10 Oeste 0 901.3 0.6 90
2018-05-27 07:00:00 5.6 4 Noroeste 6 Oeste 0 901 0.3 90
2018-05-27 06:00:00 5.3 0 Calma 7 Noroeste 0 900.8 -0.1 90
2018-05-27 05:00:00 -- 2 Noroeste 6 Oeste 0 900.7 -0.4 --
2018-05-27 04:00:00 6.1 3 Noroeste 5 Oeste 0 900.7 -0.6 89
2018-05-27 03:00:00 6.3 0 Calma 4 Norte 0 900.9 -0.5 87
2018-05-27 02:00:00 7.4 0 Calma 7 Oeste 0 901.1 0.2 87
2018-05-27 01:00:00 7.6 0 Calma 4 Noroeste 0 901.3 1 86
2018-05-27 00:00:00 8.4 0 Calma 0 Calma 0 901.4 1.3 82
2018-05-26 23:00:00 9.9 0 Calma 6 Noroeste 0 900.9 1.2 76
2018-05-26 22:00:00 12.3 3 Noroeste 9 Noroeste 0 900.3 0.7 65
2018-05-26 21:00:00 15.7 3 Noroeste 15 Noroeste 0 900.1 0.4 50
2018-05-26 20:00:00 15.9 3 Norte 19 Norte 0 899.7 -0.3 47
2018-05-26 19:00:00 16.6 10 Nordeste 22 Nordeste 0 899.6 -0.3 44
2018-05-26 18:00:00 18 5 Nordeste 18 Nordeste 0 899.7 -0.5 41
2018-05-26 17:00:00 18 7 Norte 28 Noroeste 0 900 -0.1 44
2018-05-26 16:00:00 17.6 13 Nordeste 23 Nordeste 0 899.9 -0.4 46
2018-05-26 15:00:00 15.5 9 Noroeste 17 Oeste 0 900.2 0.1 51
2018-05-26 14:00:00 15.1 7 Norte 20 Nordeste 0.1 900.1 0 58
2018-05-26 13:00:00 13.6 6 Nordeste 30 Nordeste 0 900.3 0 68
2018-05-26 12:00:00 14.1 11 Nordeste 22 Nordeste 0 900.1 -0.1 64
2018-05-26 11:00:00 12.8 4 Nordeste 10 Nordeste 0 900.1 0.2 76
2018-05-26 10:00:00 11.1 0 Calma 4 Nordeste 0 900.3 0.7 87
2018-05-26 09:00:00 9.6 0 Calma 3 Este 0 900.2 1.3 91
2018-05-26 08:00:00 8.1 0 Calma 5 Noroeste 0 899.9 0.7 91
2018-05-26 07:00:00 7.7 4 Noroeste 6 Oeste 0.1 899.6 0.1 91
2018-05-26 06:00:00 7.9 2 Nordeste 4 Nordeste 0 898.9 -1 91
2018-05-26 05:00:00 7.6 0 Calma 5 Noroeste 0 899.2 -1 91
2018-05-26 04:00:00 7.7 0 Calma 6 Oeste 0 899.5 -1 91
2018-05-26 03:00:00 7.4 3 Oeste -- -- -- 899.9 0.1 91
2018-05-26 02:00:00 7.6 0 Calma 8 Noroeste 0 900.2 -0.2 91
2018-05-26 01:00:00 7.8 3 Noroeste 8 Oeste 0 900.5 0.9 90
2018-05-26 00:00:00 9 5 Oeste 10 Noroeste 0.1 899.8 0.8 88
2018-05-25 23:00:00 10 6 Nordeste 18 Oeste 3.4 900.4 1.8 86
2018-05-25 22:00:00 11 4 Noroeste 18 Oeste 0 899.6 0.9 75
2018-05-25 21:00:00 13 8 Noroeste 23 Oeste 0 899 0 70
2018-05-25 20:00:00 14.9 4 Nordeste 15 Nordeste 0 898.6 -0.7 64
2018-05-25 19:00:00 15.5 8 Nordeste 17 Este 0 898.7 -0.5 65
2018-05-25 18:00:00 14.4 6 Nordeste 18 Este 0 899 -0.6 67
2018-05-25 17:00:00 14.2 10 Nordeste 17 Nordeste 0 899.3 -0.6 69
2018-05-25 16:00:00 15.1 6 Nordeste 14 Este 0 899.2 -0.7 71
2018-05-25 15:00:00 12.7 0 Calma 5 Noroeste 0.3 899.6 -0.2 80
2018-05-25 14:00:00 11.4 3 Oeste 10 Oeste 0 899.9 -0.4 84
2018-05-25 13:00:00 11.1 4 Oeste 12 Oeste 0 899.9 -1 83
2018-05-25 12:00:00 11.7 3 Noroeste 15 Oeste 0 899.8 -1.3 85
2018-05-25 11:00:00 11.7 5 Noroeste 10 Noroeste 0 900.3 0 88
2018-05-25 10:00:00 10.9 7 Oeste 10 Oeste 0.5 900.9 1.2 90
2018-05-25 09:00:00 10.8 3 Nordeste 13 Nordeste 0.6 901.1 2.2 90
2018-05-25 08:00:00 10.6 6 Noroeste 14 Oeste 3 900.3 0.9 89
2018-05-25 07:00:00 10.8 6 Noroeste 14 Norte 1.2 899.7 -2 90
2018-05-25 06:00:00 10.9 0 Calma 23 Nordeste 0.1 898.9 -1.9 87
2018-05-25 05:00:00 10.9 8 Norte 22 Norte 2.6 899.4 -1.6 88
2018-05-25 04:00:00 12 7 Noroeste 14 Noroeste 2.6 901.7 1 81
2018-05-25 03:00:00 14.1 5 Noroeste 18 Oeste 0.6 900.8 1 58
2018-05-25 02:00:00 15.5 9 Nordeste 25 Norte 0 901 1.2 48
2018-05-25 01:00:00 16.6 11 Norte 21 Norte 0 900.7 1.2 51
2018-05-25 00:00:00 17.4 9 Nordeste 21 Nordeste 0 899.8 1.1 48
2018-05-24 23:00:00 18.6 9 Nordeste 24 Nordeste 0 899.8 1.6 46
2018-05-24 22:00:00 19.2 7 Nordeste 14 Este 0 899.5 0.9 43
2018-05-24 21:00:00 19.8 6 Nordeste 17 Nordeste 0 898.7 -0.3 40
2018-05-24 20:00:00 21 5 Nordeste 18 Nordeste 0 898.2 -1.6 37
2018-05-24 19:00:00 22.2 6 Nordeste 26 Nordeste 0 898.6 -2.1 37
2018-05-24 18:00:00 23.3 6 Nordeste 15 Norte 0 899 -2.2 37
2018-05-24 17:00:00 21.9 2 Nordeste 10 Nordeste 0 899.8 -2.6 36
2018-05-24 16:00:00 21.1 2 Nordeste 13 Nordeste 0 900.7 -2.2 39
2018-05-24 15:00:00 20.3 6 Nordeste 14 Norte 0 901.2 -1.4 45
2018-05-24 14:00:00 19.8 7 Nordeste 13 Nordeste 0 902.4 -0.3 51
2018-05-24 13:00:00 19.9 4 Nordeste 10 Nordeste 0 902.9 -0.4 46
2018-05-24 12:00:00 19.6 3 Nordeste 10 Norte 0 902.6 -0.7 46
2018-05-24 11:00:00 18 5 Nordeste 10 Este 0 902.7 0.1 55
2018-05-24 10:00:00 17.3 4 Nordeste 8 Este 0 903.3 1 66
2018-05-24 09:00:00 14.9 0 Calma 11 Oeste 0 903.3 -0.4 80
2018-05-24 08:00:00 11.1 5 Oeste 15 Este 0 902.6 -0.5 89
2018-05-24 07:00:00 11.4 6 Norte 13 Norte 0.9 902.3 -0.7 90
2018-05-24 06:00:00 10.8 4 Oeste 13 Este 1.1 903.7 0.6 89
2018-05-24 05:00:00 10.7 0 Calma 8 Noroeste 0 903.1 0 87
2018-05-24 04:00:00 10.4 0 Calma 4 Noroeste 0.1 903 -0.2 87
2018-05-24 03:00:00 10.4 4 Oeste 7 Nordeste 0 903.1 0 84
2018-05-24 02:00:00 10.8 0 Calma 6 Noroeste 0 903.1 0.3 81
2018-05-24 01:00:00 12 0 Calma 10 Noroeste 0 903.2 0.5 76
2018-05-24 00:00:00 12.9 3 Norte 11 Norte 0 903.1 1.5 69
2018-05-23 23:00:00 13.9 4 Norte 14 Este 0 902.8 1.6 63
2018-05-23 22:00:00 16.3 8 Norte 36 Norte 0 902.7 1.5 52
2018-05-23 21:00:00 19.3 6 Norte 18 Nordeste 0 901.6 0.2 43
2018-05-23 20:00:00 21.2 10 Norte 24 Nordeste 0 901.2 -0.3 39
2018-05-23 19:00:00 22.2 12 Norte 30 Nordeste 0 901.2 -0.7 36
2018-05-23 18:00:00 22.2 14 Norte 26 Noroeste 0 901.4 -1 36
2018-05-23 17:00:00 21.6 12 Norte 26 Norte 0 901.5 -1.3 39
2018-05-23 16:00:00 21.3 6 Nordeste 22 Norte 0 901.9 -1.4 43
2018-05-23 15:00:00 22.3 8 Norte 27 Nordeste 0 902.4 -1.1 43
2018-05-23 14:00:00 21.3 14 Nordeste 26 Norte 0 902.8 -0.7 46
2018-05-23 13:00:00 20.8 10 Nordeste 23 Nordeste 0 903.3 -0.2 47
2018-05-23 12:00:00 20.2 4 Nordeste 14 Nordeste 0 903.5 -0.1 47
2018-05-23 11:00:00 19.1 0 Calma 7 Nordeste 0 903.5 0 57
2018-05-23 10:00:00 15.9 2 Norte 5 Norte 0 903.5 0.4 66
2018-05-23 09:00:00 13.7 0 Calma 5 Nordeste 0 903.6 0.6 75
2018-05-23 08:00:00 10.7 0 Calma 5 Oeste 0 903.5 0.7 90
2018-05-23 07:00:00 8.9 0 Calma 7 Oeste 0 903.1 0 89
2018-05-23 06:00:00 9.6 5 Oeste 8 Oeste 0 903 -0.1 89
2018-05-23 05:00:00 10.4 0 Calma 8 Noroeste 0 902.8 -0.3 88
2018-05-23 04:00:00 10.5 2 Noroeste 5 Noroeste 0 903.1 0.3 88
2018-05-23 03:00:00 10.6 0 Calma 4 Noroeste 0 903.1 0.4 85
2018-05-23 02:00:00 11.2 0 Calma 7 Noroeste 0 903.1 0.4 84
2018-05-23 01:00:00 11.4 0 Calma 3 Noroeste 0 902.8 0.9 80
2018-05-23 00:00:00 12.3 0 Calma 3 Noroeste 0 902.7 1 77
2018-05-22 23:00:00 13.3 0 Calma 6 Noroeste 0 902.7 1.1 75
2018-05-22 22:00:00 14.3 4 Noroeste 13 Oeste 0 901.9 0.5 71
2018-05-22 21:00:00 16.8 0 Calma 4 Nordeste 0 901.7 0.3 66
2018-05-22 20:00:00 17.7 0 Calma 5 Oeste 0 901.6 0.1 57
2018-05-22 19:00:00 18 2 Noroeste 9 Nordeste 0 901.4 0 57
2018-05-22 18:00:00 17.7 3 Norte 12 Nordeste 0 901.4 -0.1 59
2018-05-22 17:00:00 17 6 Nordeste 15 Nordeste 0 901.5 0.2 61
2018-05-22 16:00:00 16.9 8 Nordeste 19 Nordeste 0 901.4 0.2 66
2018-05-22 15:00:00 16.2 8 Nordeste 15 Nordeste 0 901.5 0.4 72
2018-05-22 14:00:00 16.6 5 Nordeste 15 Nordeste 0.2 901.3 0.5 72
2018-05-22 13:00:00 18.6 8 Nordeste 15 Norte 0 901.2 0.4 52
2018-05-22 12:00:00 18.4 8 Nordeste 15 Nordeste 0 901.1 0.5 53
2018-05-22 11:00:00 16.8 6 Nordeste 13 Nordeste 0 900.8 0.3 60
2018-05-22 10:00:00 16.1 2 Norte 9 Norte 0 900.8 1 63
2018-05-22 09:00:00 14.3 0 Calma 4 Noroeste 0 900.6 1.3 75
2018-05-22 08:00:00 10.9 0 Calma 5 Oeste 0 900.5 0.8 89
2018-05-22 07:00:00 10.5 0 Calma 6 Noroeste 0 899.8 -0.1 88
2018-05-22 06:00:00 10.8 0 Calma 8 Norte 0 899.3 -0.8 86
2018-05-22 05:00:00 11 0 Calma 9 Oeste 0 899.7 -0.6 85
2018-05-22 04:00:00 10.9 6 Oeste 9 Oeste 0 899.9 -0.6 84
2018-05-22 03:00:00 11.2 0 Calma 7 Oeste 0 900.1 -0.6 83
2018-05-22 02:00:00 11.9 0 Calma 5 Norte 0 900.3 0.1 82
2018-05-22 01:00:00 11.4 0 Calma 3 Noroeste 0 900.5 1.7 80
2018-05-22 00:00:00 12.2 0 Calma 17 Este 0 900.7 2.6 73